Time;durP1;ratioP1;P1;durP2;ratioP2;P2;SDS_P1;SDS_P2;PMS_P1;PMS_P2;Temp;Humidity;BMP_temperature;BMP_pressure;BME280_temperature;BME280_humidity;BME280_pressure;Samples;Min_cycle;Max_cycle;Signal;HPM_P1;HPM_P2
2022/09/02 00:00:59;;;;;;;7.70;4.63;;;;;;;22.64;57.73;100633.59;5118783;28;20043;-88
2022/09/02 00:03:44;;;;;;;7.47;4.63;;;;;;;22.61;57.65;100633.22;5102677;28;20035;-89
2022/09/02 00:06:16;;;;;;;9.10;4.35;;;;;;;22.53;57.43;100610.63;5122994;27;20028;-91
2022/09/02 00:08:42;;;;;;;6.38;4.10;;;;;;;22.59;57.36;100629.91;5111247;28;20053;-89
2022/09/02 00:11:15;;;;;;;6.32;4.20;;;;;;;22.56;57.53;100620.25;5093280;28;20040;-89
2022/09/02 00:13:41;;;;;;;7.63;4.25;;;;;;;22.64;57.51;100632.75;5103341;28;20032;-89
2022/09/02 00:16:11;;;;;;;6.15;4.20;;;;;;;22.53;57.33;100616.09;5095175;28;20047;-90
2022/09/02 00:18:36;;;;;;;10.85;4.60;;;;;;;22.57;57.50;100630.16;5086172;28;20114;-90
2022/09/02 00:21:02;;;;;;;6.78;4.53;;;;;;;22.44;56.98;100603.84;5087324;28;20027;-91
2022/09/02 00:23:32;;;;;;;7.45;4.50;;;;;;;22.48;57.08;100618.72;5088705;28;20040;-92
2022/09/02 00:26:00;;;;;;;6.85;4.40;;;;;;;22.61;57.16;100646.94;5108096;28;20043;-89
2022/09/02 00:28:29;;;;;;;9.75;4.38;;;;;;;22.60;56.96;100637.06;5091622;28;20482;-90
2022/09/02 00:30:56;;;;;;;6.65;4.50;;;;;;;22.53;57.09;100627.06;5074877;28;20036;-87
2022/09/02 00:33:23;;;;;;;6.65;4.50;;;;;;;22.46;57.15;100614.56;5082885;28;20028;-89
2022/09/02 00:35:50;;;;;;;6.30;4.47;;;;;;;22.39;56.95;100606.47;5074822;28;20035;-89
2022/09/02 00:38:22;;;;;;;5.68;4.35;;;;;;;22.46;57.38;100625.53;5090830;28;20032;-90
2022/09/02 00:40:52;;;;;;;7.15;4.45;;;;;;;22.35;57.32;100602.53;5110002;28;20437;-92
2022/09/02 00:43:42;;;;;;;6.47;4.60;;;;;;;22.37;57.53;100616.84;5118945;27;20392;-90
2022/09/02 00:46:08;;;;;;;7.72;4.60;;;;;;;22.41;57.53;100637.19;5090789;28;20044;-91
2022/09/02 00:48:37;;;;;;;6.82;4.55;;;;;;;22.22;57.61;100597.31;5087958;28;20028;-90
2022/09/02 00:51:04;;;;;;;7.40;4.57;;;;;;;22.32;57.12;100619.47;5085991;28;20031;-90
2022/09/02 00:53:34;;;;;;;10.70;4.50;;;;;;;22.38;57.28;100617.66;5083909;28;20055;-92
2022/09/02 00:55:59;;;;;;;5.78;4.30;;;;;;;22.29;57.03;100609.00;5079406;28;20043;-90
2022/09/02 00:58:32;;;;;;;5.80;4.13;;;;;;;22.24;57.39;100595.16;5073921;28;20126;-89
2022/09/02 01:00:59;;;;;;;6.57;4.22;;;;;;;22.37;57.78;100630.53;5103417;28;20047;-90
2022/09/02 01:03:28;;;;;;;8.43;4.20;;;;;;;22.21;57.40;100601.97;5092759;28;20042;-91
2022/09/02 01:06:01;;;;;;;7.55;3.95;;;;;;;22.32;57.49;100633.16;5115745;28;20188;-91
2022/09/02 01:08:33;;;;;;;8.65;3.95;;;;;;;22.29;57.34;100625.44;5112313;28;20027;-87
2022/09/02 01:11:00;;;;;;;10.23;4.40;;;;;;;22.35;57.75;100635.41;5077472;28;20093;-90
2022/09/02 01:13:28;;;;;;;7.28;4.00;;;;;;;22.40;57.69;100631.94;5107876;28;20035;-90
2022/09/02 01:16:26;;;;;;;8.52;4.20;;;;;;;22.39;57.31;100628.38;5091092;28;20047;-90
2022/09/02 01:18:54;;;;;;;10.57;4.25;;;;;;;22.39;57.41;100635.78;5097718;28;20036;-91
2022/09/02 01:21:21;;;;;;;6.80;4.05;;;;;;;22.27;57.81;100622.09;5109910;28;20059;-91
2022/09/02 01:23:48;;;;;;;9.95;4.10;;;;;;;22.50;57.57;100648.59;5071273;28;20032;-91
2022/09/02 01:26:20;;;;;;;6.18;4.40;;;;;;;22.42;57.66;100647.06;5091871;28;20066;-90
2022/09/02 01:28:46;;;;;;;7.35;3.90;;;;;;;22.29;57.14;100615.31;5104887;28;20051;-91
2022/09/02 01:31:16;;;;;;;6.13;4.07;;;;;;;22.30;57.60;100632.56;5072534;28;20466;-91
2022/09/02 01:33:44;;;;;;;8.63;3.90;;;;;;;22.27;57.51;100624.84;5103053;28;20034;-91
2022/09/02 01:36:09;;;;;;;7.25;4.10;;;;;;;22.10;57.84;100603.63;5079291;28;20036;-91
2022/09/02 01:38:41;;;;;;;8.48;4.38;;;;;;;22.30;57.67;100618.88;5068143;28;20023;-90
2022/09/02 01:41:15;;;;;;;6.90;4.20;;;;;;;22.37;57.51;100644.22;5090223;28;20407;-92
2022/09/02 01:43:42;;;;;;;6.70;3.75;;;;;;;22.21;57.83;100612.09;5085220;28;20035;-91
2022/09/02 01:46:09;;;;;;;6.15;3.90;;;;;;;22.25;57.94;100625.06;5109353;28;20028;-91
2022/09/02 01:48:35;;;;;;;7.65;4.18;;;;;;;22.20;58.17;100615.88;5105737;28;20484;-88
2022/09/02 01:51:02;;;;;;;10.10;4.10;;;;;;;22.23;57.89;100620.91;5090485;28;20040;-89
2022/09/02 01:53:30;;;;;;;10.15;4.13;;;;;;;22.22;58.20;100614.59;5095539;28;20430;-91
2022/09/02 01:56:01;;;;;;;8.70;3.90;;;;;;;22.31;58.16;100626.84;5090740;28;20051;-89
2022/09/02 01:58:28;;;;;;;7.13;3.80;;;;;;;22.31;58.46;100618.63;5112544;28;20032;-88
2022/09/02 02:00:57;;;;;;;6.93;3.78;;;;;;;22.29;59.00;100623.53;5102736;28;20042;-90
2022/09/02 02:03:23;;;;;;;5.80;3.70;;;;;;;22.28;58.73;100613.63;5110231;28;20102;-90
2022/09/02 02:05:51;;;;;;;6.85;3.88;;;;;;;22.33;58.55;100615.66;5095429;28;20073;-88
2022/09/02 02:08:17;;;;;;;5.97;3.80;;;;;;;22.34;58.73;100620.06;5113665;28;20062;-89
2022/09/02 02:10:43;;;;;;;8.02;3.60;;;;;;;22.30;59.10;100613.41;5109053;28;20039;-90
2022/09/02 02:13:10;;;;;;;5.60;3.55;;;;;;;22.37;59.01;100616.84;5097519;28;20104;-90
2022/09/02 02:15:40;;;;;;;5.75;3.53;;;;;;;22.23;58.81;100582.56;5094204;28;20035;-88
2022/09/02 02:18:06;;;;;;;7.43;3.58;;;;;;;22.42;59.07;100618.84;5092341;28;20105;-90
2022/09/02 02:20:32;;;;;;;6.28;3.38;;;;;;;22.38;58.99;100603.97;5066533;28;20069;-89
2022/09/02 02:23:04;;;;;;;5.20;3.50;;;;;;;22.24;59.10;100589.69;5094584;28;20064;-88
2022/09/02 02:25:34;;;;;;;6.40;3.55;;;;;;;22.29;59.39;100587.91;5079282;28;20027;-88
2022/09/02 02:28:04;;;;;;;6.43;3.33;;;;;;;22.41;59.62;100595.28;5112493;28;20043;-90
2022/09/02 02:30:34;;;;;;;6.18;3.40;;;;;;;22.51;59.67;100611.94;5100269;28;20828;-90
2022/09/02 02:33:02;;;;;;;4.68;3.40;;;;;;;22.49;59.71;100597.66;5069442;28;20466;-91
2022/09/02 02:35:30;;;;;;;5.20;3.40;;;;;;;22.58;59.43;100604.41;5112281;28;20134;-89
2022/09/02 02:37:59;;;;;;;8.18;3.15;;;;;;;22.50;59.63;100600.16;5113724;28;20036;-89
2022/09/02 02:40:28;;;;;;;7.78;3.10;;;;;;;22.47;59.68;100584.19;5110372;28;20032;-91
2022/09/02 02:43:00;;;;;;;7.00;3.42;;;;;;;22.53;60.04;100577.75;5112696;28;20076;-91
2022/09/02 02:45:27;;;;;;;7.00;3.40;;;;;;;22.57;59.62;100580.00;5083547;28;20032;-91
2022/09/02 02:47:53;;;;;;;5.57;3.50;;;;;;;22.58;59.58;100584.41;5107005;28;20039;-89
2022/09/02 02:50:19;;;;;;;6.47;3.20;;;;;;;22.60;59.78;100585.00;5110230;28;20470;-91
2022/09/02 02:52:47;;;;;;;7.95;3.30;;;;;;;22.57;59.90;100580.84;5095730;28;20122;-89
2022/09/02 02:55:14;;;;;;;9.20;3.33;;;;;;;22.66;59.82;100597.72;5116254;27;20052;-89
2022/09/02 02:57:43;;;;;;;8.52;3.20;;;;;;;22.71;59.85;100595.94;5101704;28;20039;-90
2022/09/02 03:00:22;;;;;;;5.22;3.08;;;;;;;22.46;59.67;100566.09;5115254;28;20036;-89
2022/09/02 03:02:48;;;;;;;5.68;3.40;;;;;;;22.75;59.58;100599.00;5126976;28;20028;-88
2022/09/02 03:05:18;;;;;;;6.10;3.42;;;;;;;22.57;59.78;100571.78;5099644;28;20028;-89
2022/09/02 03:07:45;;;;;;;7.15;3.20;;;;;;;22.63;60.17;100590.81;5117448;28;20035;-89
2022/09/02 03:10:11;;;;;;;8.85;3.40;;;;;;;22.59;60.07;100575.94;5110526;28;20114;-89
2022/09/02 03:12:46;;;;;;;8.18;3.47;;;;;;;22.58;59.89;100579.75;5086231;28;20149;-90
2022/09/02 03:15:12;;;;;;;;;;;;;;;22.79;60.35;100597.44;5104319;28;20035;-90
2022/09/02 03:17:40;;;;;;;6.85;3.50;;;;;;;22.67;60.52;100582.97;5107749;28;19923;-89
2022/09/02 03:20:10;;;;;;;6.75;3.40;;;;;;;22.75;60.51;100590.78;5108086;28;20032;-90
2022/09/02 03:22:38;;;;;;;7.30;3.25;;;;;;;22.76;60.72;100606.16;5107137;28;20170;-90
2022/09/02 03:25:09;;;;;;;8.50;3.70;;;;;;;22.68;60.95;100590.09;5110762;28;20023;-89
2022/09/02 03:27:44;;;;;;;5.22;3.22;;;;;;;22.73;60.41;100592.94;5114166;28;20032;-89
2022/09/02 03:30:16;;;;;;;6.13;3.45;;;;;;;22.75;61.01;100593.53;5124655;28;20035;-91
2022/09/02 03:32:43;;;;;;;7.82;3.30;;;;;;;22.70;60.55;100580.53;5125193;28;20023;-89
2022/09/02 03:35:11;;;;;;;5.43;3.20;;;;;;;22.91;60.81;100617.41;5100541;28;20042;-88
2022/09/02 03:37:37;;;;;;;7.97;3.47;;;;;;;22.86;60.86;100614.56;5105148;28;20048;-91
2022/09/02 03:40:07;;;;;;;6.20;3.42;;;;;;;22.82;60.78;100607.91;5092893;28;20514;-91
2022/09/02 03:42:35;;;;;;;8.35;3.35;;;;;;;22.77;60.85;100602.34;5111778;28;20067;-91
2022/09/02 03:45:03;;;;;;;6.53;3.80;;;;;;;22.86;60.70;100611.84;5125939;28;20035;-87
2022/09/02 03:47:29;;;;;;;6.85;3.55;;;;;;;22.73;61.18;100587.44;5130605;28;20031;-89
2022/09/02 03:49:56;;;;;;;7.10;3.70;;;;;;;22.77;61.07;100599.59;5103801;28;20059;-89
2022/09/02 03:52:25;;;;;;;5.97;3.60;;;;;;;22.69;61.27;100572.59;5109903;27;20109;-87
2022/09/02 03:54:51;;;;;;;6.40;3.20;;;;;;;22.83;61.07;100600.50;5123305;27;20067;-87
2022/09/02 03:57:17;;;;;;;6.97;3.28;;;;;;;22.94;60.97;100605.97;5115527;27;20041;-85
2022/09/02 03:59:49;;;;;;;8.63;3.50;;;;;;;22.82;61.03;100580.50;5106926;27;20411;-92
2022/09/02 04:02:15;;;;;;;7.03;3.25;;;;;;;22.89;61.20;100592.16;5092226;27;20047;-89
2022/09/02 04:04:47;;;;;;;6.60;3.38;;;;;;;22.95;61.13;100598.59;5096254;28;20483;-87
2022/09/02 04:07:14;;;;;;;5.00;3.30;;;;;;;23.03;60.94;100613.84;5100376;27;20080;-88
2022/09/02 04:09:41;;;;;;;8.90;3.20;;;;;;;22.86;61.33;100587.16;5109890;28;20110;-89
2022/09/02 04:12:07;;;;;;;4.75;3.10;;;;;;;23.03;61.25;100614.66;5130496;27;20039;-89
2022/09/02 04:14:32;;;;;;;5.45;3.50;;;;;;;23.12;61.13;100620.59;5092031;27;20073;-88
2022/09/02 04:17:00;;;;;;;9.10;3.38;;;;;;;23.01;61.13;100597.63;5095154;27;20133;-89
2022/09/02 04:19:28;;;;;;;9.98;3.72;;;;;;;23.09;60.68;100607.38;5123567;27;20429;-88
2022/09/02 04:21:54;;;;;;;7.13;3.83;;;;;;;23.29;60.79;100632.41;5112571;27;20046;-90
2022/09/02 04:24:21;;;;;;;7.30;3.33;;;;;;;23.16;60.75;100606.16;5092333;27;20054;-88
2022/09/02 04:26:46;;;;;;;8.32;3.47;;;;;;;23.36;60.82;100635.03;5113588;27;20027;-89
2022/09/02 04:29:13;;;;;;;8.30;3.20;;;;;;;23.11;60.93;100583.31;5128590;27;20157;-89
2022/09/02 04:31:39;;;;;;;6.07;3.40;;;;;;;23.46;60.44;100639.84;5092527;27;20065;-89
2022/09/02 04:34:06;;;;;;;7.32;3.40;;;;;;;23.48;60.40;100622.06;5092832;28;20466;-89
2022/09/02 04:36:32;;;;;;;4.93;3.33;;;;;;;23.48;59.87;100616.56;5088418;28;20027;-88
2022/09/02 04:38:58;;;;;;;15.35;3.67;;;;;;;23.65;59.60;100645.94;5103887;27;20078;-90
2022/09/02 04:41:29;;;;;;;7.18;3.85;;;;;;;23.50;59.13;100613.59;5103407;27;20031;-91
2022/09/02 04:43:56;;;;;;;7.93;3.50;;;;;;;23.58;58.80;100625.00;5105440;28;20042;-90
2022/09/02 04:46:24;;;;;;;9.35;3.60;;;;;;;23.61;58.71;100631.91;5067131;28;20031;-91
2022/09/02 04:48:56;;;;;;;6.32;3.53;;;;;;;23.58;58.62;100633.25;5092195;27;20027;-90
2022/09/02 04:51:33;;;;;;;;;;;;;;;;;;;;;
2022/09/02 04:54:06;;;;;;;7.72;3.60;;;;;;;23.52;58.33;100622.41;5107420;28;20044;-90
2022/09/02 04:56:37;;;;;;;8.15;3.83;;;;;;;23.54;58.08;100615.59;5129100;27;20027;-88
2022/09/02 04:59:04;;;;;;;7.45;3.95;;;;;;;23.71;58.00;100632.06;5113384;28;20061;-89
2022/09/02 05:01:35;;;;;;;7.80;3.90;;;;;;;23.64;57.61;100622.34;5119942;27;20054;-89
2022/09/02 05:04:06;;;;;;;6.05;3.78;;;;;;;23.81;57.55;100631.44;5120994;28;20046;-88
2022/09/02 05:06:31;;;;;;;9.77;3.78;;;;;;;23.88;57.82;100643.09;5104716;28;20039;-87
2022/09/02 05:09:00;;;;;;;10.82;4.22;;;;;;;23.95;57.58;100649.25;5113303;28;20032;-89
2022/09/02 05:11:29;;;;;;;13.05;4.53;;;;;;;23.89;57.72;100627.47;5117248;28;20039;-91
2022/09/02 05:14:05;;;;;;;9.15;3.70;;;;;;;23.99;57.45;100617.44;5130959;28;20110;-92
2022/09/02 05:16:35;;;;;;;10.02;3.95;;;;;;;24.34;57.11;100651.19;5061311;28;20048;-87
2022/09/02 05:19:02;;;;;;;7.68;3.63;;;;;;;24.37;56.52;100612.22;5099580;28;20519;-91
2022/09/02 05:22:14;;;;;;;10.63;3.75;;;;;;;24.84;56.36;100642.00;5060168;28;20484;-91
2022/09/02 05:24:59;;;;;;;10.52;4.40;;;;;;;24.94;55.95;100636.63;5125658;27;20039;-89
2022/09/02 05:27:54;;;;;;;12.18;3.88;;;;;;;25.27;55.42;100645.84;5129872;27;20491;-93
2022/09/02 05:40:56;;;;;;;7.60;3.20;;;;;;;26.22;52.51;100629.59;5115994;28;20464;-92
2022/09/02 05:43:23;;;;;;;10.80;3.92;;;;;;;26.44;52.31;100645.16;5108952;27;20058;-91
2022/09/02 05:45:53;;;;;;;6.88;3.30;;;;;;;26.52;51.35;100614.31;5090356;28;20032;-90
2022/09/02 05:55:19;;;;;;;8.25;3.53;;;;;;;27.34;50.47;100647.75;5124340;27;20154;-90
2022/09/02 05:58:03;;;;;;;8.02;3.30;;;;;;;27.07;50.44;100632.22;5100611;28;20556;-90
2022/09/02 06:00:31;;;;;;;9.70;3.50;;;;;;;27.17;50.34;100626.72;5103522;27;20043;-90
2022/09/02 06:02:57;;;;;;;8.55;3.35;;;;;;;27.34;50.70;100658.78;5114503;28;20062;-91
2022/09/02 06:05:24;;;;;;;8.98;3.50;;;;;;;27.54;50.23;100652.50;5093632;27;20510;-91
2022/09/02 06:08:10;;;;;;;;;;;;;;;;;;;;;
2022/09/02 06:11:11;;;;;;;10.35;3.33;;;;;;;27.53;50.18;100632.34;4995748;28;20057;-93
2022/09/02 06:13:41;;;;;;;11.18;3.75;;;;;;;27.72;49.96;100637.28;5039155;28;20073;-91
2022/09/02 06:16:15;;;;;;;10.88;3.60;;;;;;;27.68;49.57;100633.44;5059685;28;20047;-95
2022/09/02 06:18:43;;;;;;;10.25;3.67;;;;;;;27.89;49.57;100653.66;5056901;28;20032;-90
2022/09/02 06:21:14;;;;;;;9.82;3.75;;;;;;;28.10;48.95;100643.41;5057498;28;20029;-92
2022/09/02 06:24:51;;;;;;;;;;;;;;;;;;;;;
2022/09/02 06:27:24;;;;;;;6.45;3.50;;;;;;;28.20;48.93;100654.44;5068310;28;20036;-93
2022/09/02 06:29:53;;;;;;;10.52;3.72;;;;;;;28.37;48.43;100666.00;5041331;28;20118;-91
2022/09/02 06:32:19;;;;;;;9.85;4.15;;;;;;;28.33;48.95;100648.34;5057660;28;20040;-91
2022/09/02 06:34:44;;;;;;;8.75;4.10;;;;;;;28.66;48.07;100648.81;5052949;28;20087;-89
2022/09/02 06:37:10;;;;;;;10.93;4.05;;;;;;;28.63;47.93;100646.59;5065095;28;20080;-90
2022/09/02 06:39:43;;;;;;;9.05;3.55;;;;;;;28.48;48.46;100655.78;5043415;28;20123;-94
2022/09/02 06:42:18;;;;;;;9.85;4.15;;;;;;;28.88;48.04;100681.66;5078236;28;20048;-94
2022/09/02 06:44:48;;;;;;;9.10;4.20;;;;;;;28.54;49.16;100681.47;5125857;27;20093;-93
2022/09/02 06:47:15;;;;;;;8.13;3.97;;;;;;;28.52;49.02;100661.59;5105302;27;20081;-90
2022/09/02 06:50:22;;;;;;;16.92;4.68;;;;;;;28.88;48.61;100689.13;5076220;28;20040;-95
2022/09/02 06:53:09;;;;;;;11.00;4.50;;;;;;;28.94;48.51;100663.06;5075662;28;20511;-94
2022/09/02 06:55:40;;;;;;;8.65;4.03;;;;;;;28.94;48.89;100691.59;5068500;27;20074;-94
2022/09/02 06:58:06;;;;;;;11.50;4.50;;;;;;;28.82;48.92;100655.09;5084647;27;20057;-91
2022/09/02 07:00:42;;;;;;;13.02;4.32;;;;;;;29.15;48.34;100674.91;5111998;27;20035;-94
2022/09/02 07:06:08;;;;;;;9.32;4.50;;;;;;;29.43;47.32;100643.75;5103511;27;20127;-90
2022/09/02 07:08:40;;;;;;;11.88;4.95;;;;;;;29.55;47.44;100651.69;5129511;27;20043;-92
2022/09/02 07:11:07;;;;;;;10.80;4.88;;;;;;;30.15;45.14;100673.63;5132210;27;20035;-90
2022/09/02 07:13:34;;;;;;;12.85;4.70;;;;;;;30.22;45.34;100676.06;5113771;27;20506;-88
2022/09/02 07:16:02;;;;;;;11.15;4.82;;;;;;;30.00;46.15;100674.63;5111358;28;20596;-91
2022/09/02 07:18:29;;;;;;;9.80;4.88;;;;;;;29.33;47.91;100654.03;5089625;27;20027;-90
2022/09/02 07:20:57;;;;;;;9.38;4.70;;;;;;;30.19;46.65;100685.81;5132296;27;20037;-88
2022/09/02 07:23:22;;;;;;;12.98;4.78;;;;;;;30.28;46.55;100673.00;5114689;27;20467;-92
2022/09/02 07:25:48;;;;;;;9.63;4.80;;;;;;;30.45;45.41;100658.66;5130866;27;20071;-89
2022/09/02 07:28:13;;;;;;;13.70;4.70;;;;;;;30.68;45.59;100667.31;5130686;27;20392;-88
2022/09/02 07:30:41;;;;;;;14.90;4.93;;;;;;;30.22;46.64;100659.44;5119411;27;20392;-88
2022/09/02 07:33:06;;;;;;;11.65;5.05;;;;;;;30.85;45.99;100684.31;5096199;28;20130;-88
2022/09/02 07:35:32;;;;;;;14.13;4.70;;;;;;;31.24;44.94;100669.38;5122619;27;20097;-86
2022/09/02 07:37:58;;;;;;;12.82;5.00;;;;;;;31.11;45.25;100678.44;5131409;27;20456;-86
2022/09/02 07:40:24;;;;;;;19.35;6.20;;;;;;;31.54;44.54;100683.97;5114434;27;20114;-85
2022/09/02 07:42:50;;;;;;;15.55;4.57;;;;;;;30.96;45.32;100662.81;5113087;27;20137;-88
2022/09/02 07:45:19;;;;;;;16.20;4.45;;;;;;;31.42;43.57;100666.91;5110908;27;20069;-87
2022/09/02 07:47:44;;;;;;;11.20;4.68;;;;;;;31.33;43.93;100675.91;5122774;27;20499;-86
2022/09/02 07:50:12;;;;;;;11.25;4.60;;;;;;;31.52;43.53;100672.34;5114765;27;20027;-87
2022/09/02 07:52:38;;;;;;;13.05;4.80;;;;;;;32.11;42.76;100670.81;5097771;27;20526;-86
2022/09/02 07:55:04;;;;;;;16.90;4.45;;;;;;;32.72;40.39;100679.16;5133191;27;20047;-86
2022/09/02 07:57:31;;;;;;;21.52;4.60;;;;;;;32.95;39.50;100672.53;5106819;27;20034;-88
2022/09/02 07:59:56;;;;;;;10.77;3.80;;;;;;;33.04;38.58;100688.50;5122813;27;20038;-86
2022/09/02 08:02:23;;;;;;;14.82;4.30;;;;;;;33.30;39.14;100681.28;5121619;27;20031;-89
2022/09/02 08:04:49;;;;;;;13.63;4.10;;;;;;;33.46;38.29;100676.19;5114886;27;20027;-86
2022/09/02 08:07:17;;;;;;;11.75;3.90;;;;;;;33.31;38.89;100669.00;5131621;27;20035;-85
2022/09/02 08:09:46;;;;;;;16.58;4.30;;;;;;;33.49;38.92;100691.44;5098312;27;20084;-84
2022/09/02 08:12:11;;;;;;;6.68;3.45;;;;;;;32.82;39.75;100704.00;5100008;27;20395;-88
2022/09/02 08:14:37;;;;;;;10.30;3.80;;;;;;;32.54;40.37;100695.63;5116204;27;20080;-87
2022/09/02 08:17:03;;;;;;;11.77;3.95;;;;;;;32.80;40.14;100697.91;5097256;27;20039;-83
2022/09/02 08:19:29;;;;;;;11.32;4.18;;;;;;;32.38;41.30;100703.44;5112240;27;20039;-83
2022/09/02 08:21:55;;;;;;;15.05;3.72;;;;;;;32.41;40.85;100696.44;5083374;27;20482;-88
2022/09/02 08:24:21;;;;;;;13.98;3.83;;;;;;;32.37;40.68;100690.63;5092994;27;20031;-88
2022/09/02 08:26:48;;;;;;;10.95;4.18;;;;;;;32.49;40.10;100676.22;5112940;27;20540;-85
2022/09/02 08:29:14;;;;;;;14.30;4.53;;;;;;;32.42;40.59;100689.72;5109479;27;20047;-86
2022/09/02 08:31:42;;;;;;;10.98;4.00;;;;;;;31.50;42.83;100675.41;5095636;27;20400;-84
2022/09/02 08:34:08;;;;;;;13.07;4.05;;;;;;;32.51;40.74;100696.25;5109412;27;20141;-84
2022/09/02 08:36:33;;;;;;;11.98;4.22;;;;;;;32.94;39.20;100693.19;5084757;28;20034;-87
2022/09/02 08:39:03;;;;;;;15.80;4.78;;;;;;;32.49;40.55;100676.22;5090326;27;20039;-85
2022/09/02 08:42:45;;;;;;;12.40;4.60;;;;;;;32.11;41.52;100676.38;5102043;27;20042;-88
2022/09/02 08:45:27;;;;;;;11.70;4.73;;;;;;;32.06;41.73;100687.59;5120946;27;20045;-88
2022/09/02 08:48:11;;;;;;;11.88;4.65;;;;;;;32.00;42.13;100686.03;5114179;27;20047;-85
2022/09/02 08:50:57;;;;;;;9.23;4.10;;;;;;;32.14;39.94;100686.88;5120315;27;20031;-87
2022/09/02 08:53:45;;;;;;;9.07;4.43;;;;;;;33.14;39.11;100689.16;5101750;28;20048;-87
2022/09/02 08:56:11;;;;;;;9.20;3.97;;;;;;;33.33;37.87;100672.28;5120974;28;20024;-88
2022/09/02 08:58:42;;;;;;;10.93;4.40;;;;;;;33.42;37.36;100675.16;5109222;28;20117;-88
2022/09/02 09:01:49;;;;;;;8.27;4.22;;;;;;;33.18;38.34;100670.69;5096184;28;20048;-86
2022/09/02 09:04:26;;;;;;;16.02;4.60;;;;;;;32.94;39.24;100673.69;5099818;28;20034;-89
2022/09/02 09:07:14;;;;;;;13.85;4.97;;;;;;;33.06;39.42;100677.91;5094346;28;20036;-89
2022/09/02 09:09:51;;;;;;;17.08;4.55;;;;;;;32.84;39.98;100682.25;5107934;28;20031;-90
2022/09/02 09:12:41;;;;;;;13.38;4.60;;;;;;;32.24;41.02;100685.06;5091877;28;20055;-84
2022/09/02 09:15:33;;;;;;;16.20;4.95;;;;;;;32.02;41.22;100666.28;5112329;28;20035;-88
2022/09/02 09:18:04;;;;;;;17.88;5.20;;;;;;;31.85;42.26;100677.94;5094369;28;20471;-89
2022/09/02 09:20:36;;;;;;;15.35;4.80;;;;;;;31.66;42.32;100680.75;5107102;28;20436;-90
2022/09/02 09:23:29;;;;;;;16.73;5.65;;;;;;;31.52;42.91;100669.56;5113604;28;20038;-90
2022/09/02 09:26:06;;;;;;;13.85;5.00;;;;;;;32.51;40.56;100679.56;5114578;28;20403;-88
2022/09/02 09:28:47;;;;;;;11.23;4.63;;;;;;;34.65;36.61;100674.84;5123866;28;20053;-89
2022/09/02 09:31:20;;;;;;;14.10;4.90;;;;;;;36.78;33.07;100663.72;5116435;28;20058;-88
2022/09/02 09:33:58;;;;;;;8.15;4.38;;;;;;;38.99;29.55;100673.00;5110690;28;20020;-89
2022/09/02 09:36:43;;;;;;;8.75;4.40;;;;;;;39.24;28.61;100668.97;5109742;28;20078;-85
2022/09/02 09:39:30;;;;;;;7.82;4.50;;;;;;;39.26;28.05;100649.72;5122787;28;20054;-90
2022/09/02 09:42:04;;;;;;;12.48;4.47;;;;;;;38.81;28.79;100642.31;5097927;28;20047;-93
2022/09/02 09:44:46;;;;;;;13.40;4.47;;;;;;;39.91;27.28;100651.63;5095434;28;20043;-90
2022/09/02 09:47:30;;;;;;;10.15;3.80;;;;;;;37.98;30.38;100652.72;5093305;28;20062;-93
2022/09/02 09:50:20;;;;;;;8.15;4.50;;;;;;;37.58;31.37;100680.50;5097417;28;20026;-93
2022/09/02 09:52:46;;;;;;;14.30;4.85;;;;;;;37.61;31.62;100653.78;5094713;28;20043;-84
2022/09/02 09:55:21;;;;;;;14.60;4.47;;;;;;;38.15;30.69;100660.16;5109760;28;20062;-85
2022/09/02 09:57:47;;;;;;;15.93;4.47;;;;;;;39.11;28.93;100656.09;5096343;28;20043;-82
2022/09/02 10:00:32;;;;;;;9.82;4.32;;;;;;;38.65;29.54;100658.22;5100629;28;20490;-84
2022/09/02 10:02:59;;;;;;;13.88;4.20;;;;;;;37.63;31.17;100652.28;5095791;28;20043;-82
2022/09/02 10:05:32;;;;;;;14.85;5.00;;;;;;;37.03;32.26;100629.13;5110050;28;20064;-84
2022/09/02 10:08:19;;;;;;;12.55;4.32;;;;;;;36.21;33.31;100626.56;5107791;28;20024;-82
2022/09/02 10:11:02;;;;;;;9.85;4.28;;;;;;;35.23;35.37;100608.59;5122792;28;20471;-82
2022/09/02 10:13:33;;;;;;;8.07;4.35;;;;;;;35.29;35.02;100585.75;5090148;28;20120;-82
2022/09/02 10:16:14;;;;;;;12.93;4.75;;;;;;;36.09;33.64;100599.28;5099023;28;20278;-82
2022/09/02 10:18:50;;;;;;;10.52;4.32;;;;;;;37.55;31.86;100602.69;5105246;28;20024;-84
2022/09/02 10:21:32;;;;;;;7.07;4.10;;;;;;;37.23;31.45;100601.47;5114983;28;20054;-85
2022/09/02 10:24:06;;;;;;;9.63;4.55;;;;;;;35.06;34.71;100593.47;5107666;28;20027;-85
2022/09/02 10:26:37;;;;;;;8.02;4.45;;;;;;;36.12;33.71;100597.81;5096138;28;20165;-90
2022/09/02 10:29:30;;;;;;;9.88;4.60;;;;;;;36.25;33.50;100593.16;5095072;28;20062;-83
2022/09/02 10:32:21;;;;;;;10.45;4.30;;;;;;;35.92;34.05;100586.19;5114096;27;20035;-82
2022/09/02 10:34:52;;;;;;;11.13;4.22;;;;;;;37.13;32.26;100586.69;5079209;28;20043;-85
2022/09/02 10:37:45;;;;;;;10.63;4.22;;;;;;;37.46;31.54;100585.91;5103010;28;20447;-92
2022/09/02 10:40:18;;;;;;;11.70;4.47;;;;;;;36.87;32.09;100586.06;5102752;28;20097;-90
2022/09/02 10:43:07;;;;;;;9.13;4.50;;;;;;;35.85;33.83;100591.47;5104338;28;20067;-88
2022/09/02 10:45:52;;;;;;;10.95;5.00;;;;;;;35.28;34.59;100583.28;5097823;28;20023;-86
2022/09/02 10:48:53;;;;;;;8.90;4.05;;;;;;;33.95;37.13;100559.28;5103984;28;20043;-87
2022/09/02 10:51:44;;;;;;;10.50;4.50;;;;;;;34.03;37.30;100597.56;5109146;28;20062;-88
2022/09/02 10:54:31;;;;;;;10.70;4.28;;;;;;;33.34;38.64;100598.72;5084652;28;20039;-86
2022/09/02 10:57:07;;;;;;;10.40;4.43;;;;;;;33.27;39.25;100600.28;5104049;28;20200;-85
2022/09/02 10:59:39;;;;;;;14.68;4.93;;;;;;;32.84;39.33;100586.78;5091580;28;20419;-90
2022/09/02 11:02:17;;;;;;;10.50;4.60;;;;;;;33.15;38.96;100598.88;5104617;28;20488;-88
2022/09/02 11:04:47;;;;;;;12.10;4.90;;;;;;;33.39;38.43;100598.59;5102632;28;20028;-92
2022/09/02 11:07:16;;;;;;;10.57;4.50;;;;;;;33.25;38.42;100591.41;5108816;28;20057;-87
2022/09/02 11:10:08;;;;;;;11.02;5.20;;;;;;;34.76;35.84;100600.81;5105962;28;20032;-91
2022/09/02 11:12:38;;;;;;;12.30;4.40;;;;;;;34.22;37.36;100603.72;5105120;28;20453;-87
2022/09/02 11:15:19;;;;;;;13.77;4.57;;;;;;;34.51;36.66;100613.50;5087400;28;20115;-87
2022/09/02 11:17:50;;;;;;;12.10;4.45;;;;;;;33.25;38.65;100606.19;5110535;28;20087;-88
2022/09/02 11:20:38;;;;;;;8.57;4.45;;;;;;;31.52;42.67;100600.09;5104495;28;20036;-86
2022/09/02 11:23:21;;;;;;;10.50;4.45;;;;;;;30.57;45.39;100605.56;5102826;28;20028;-86
2022/09/02 11:26:01;;;;;;;15.25;5.20;;;;;;;29.70;48.82;100605.63;5093957;28;20097;-87
2022/09/02 11:28:42;;;;;;;12.00;4.82;;;;;;;28.94;50.50;100591.13;5101506;28;20030;-87
2022/09/02 11:31:26;;;;;;;11.40;4.88;;;;;;;28.57;52.19;100596.03;5109837;28;20039;-86
2022/09/02 11:33:57;;;;;;;13.05;5.10;;;;;;;28.07;53.40;100603.31;5103216;28;20517;-85
2022/09/02 11:36:24;;;;;;;17.88;5.10;;;;;;;28.14;55.03;100605.78;5099266;28;20050;-86
2022/09/02 11:39:30;;;;;;;13.07;5.22;;;;;;;28.90;52.56;100585.34;5105275;28;20023;-85
2022/09/02 11:42:19;;;;;;;17.95;4.78;;;;;;;29.41;50.97;100598.06;5100556;28;20084;-87
2022/09/02 11:45:09;;;;;;;12.30;4.50;;;;;;;28.82;52.40;100594.25;5108575;28;20066;-87
2022/09/02 11:47:52;;;;;;;10.32;4.68;;;;;;;28.52;53.19;100579.47;5098271;28;20028;-84
2022/09/02 11:50:45;;;;;;;18.05;5.45;;;;;;;28.63;53.14;100563.63;5102881;28;20059;-86
2022/09/02 11:53:26;;;;;;;16.02;4.70;;;;;;;28.86;53.06;100589.78;5120558;27;20059;-90
2022/09/02 11:55:57;;;;;;;14.70;4.68;;;;;;;28.67;53.52;100550.91;5120492;28;20038;-85
2022/09/02 11:58:32;;;;;;;13.95;4.80;;;;;;;28.88;53.91;100554.38;5085610;27;20079;-86
2022/09/02 12:01:05;;;;;;;14.10;4.80;;;;;;;29.65;51.85;100582.34;5131559;27;20047;-85
2022/09/02 12:03:30;;;;;;;15.35;4.78;;;;;;;29.52;52.42;100588.53;5111903;27;20027;-84
2022/09/02 12:06:05;;;;;;;16.83;4.47;;;;;;;29.48;51.57;100603.25;5135217;27;20037;-86
2022/09/02 12:08:35;;;;;;;13.50;4.38;;;;;;;28.77;51.41;100575.72;5141177;27;20042;-87
2022/09/02 12:11:05;;;;;;;15.93;4.57;;;;;;;28.56;51.44;100558.41;5118794;27;20042;-85
2022/09/02 12:13:42;;;;;;;11.82;4.40;;;;;;;28.16;50.33;100534.50;5113638;27;20058;-85